This is the latest recevied weather packets stored in our database for station/object SV9TNF-1. If no packets are shown the sender has not sent any weather packets the latest 10 day(s).
| Time | Temp. | Humidity | Pressure | Rain* | Wind** | Luminosity | Snow |
|---|---|---|---|---|---|---|---|
| 1778160059 | 23.89° C | 53% | 1006.4 hPa | 0 mm | 0.89 m/s, 133° | - | - |
| 1778159758 | 23.89° C | 52% | 1006.4 hPa | 0 mm | 1.79 m/s, 45° | - | - |
| 1778159458 | 24.44° C | 48% | 1006.8 hPa | 0 mm | 7.15 m/s, 131° | - | - |
| 1778159158 | 25° C | 49% | 1006.8 hPa | 0 mm | 3.58 m/s, 127° | - | - |
| 1778158858 | 24.44° C | 48% | 1006.8 hPa | 0 mm | 2.68 m/s, 78° | - | - |
| 1778158558 | 25° C | 47% | 1006.4 hPa | 0 mm | 8.05 m/s, 326° | - | - |
| 1778158258 | 25° C | 43% | 1006.4 hPa | 0 mm | 8.05 m/s, 353° | - | - |
| 1778157958 | 25.56° C | 39% | 1006.8 hPa | 0 mm | 1.34 m/s, 19° | - | - |
| 1778157658 | 26.11° C | 41% | 1006.8 hPa | 0 mm | 1.34 m/s, 109° | - | - |
| 1778157358 | 25° C | 43% | 1006.4 hPa | 0 mm | 2.24 m/s, 124° | - | - |
| 1778157058 | 25° C | 44% | 1006.4 hPa | 0 mm | 4.02 m/s, 113° | - | - |
| 1778156757 | 24.44° C | 43% | 1006.4 hPa | 0 mm | 3.13 m/s, 116° | - | - |
| 1778156458 | 25° C | 43% | 1006.8 hPa | 0 mm | 3.13 m/s, 118° | - | - |
| 1778156157 | 25° C | 43% | 1006.8 hPa | 0 mm | 5.36 m/s, 123° | - | - |
| 1778155857 | 24.44° C | 43% | 1006.8 hPa | 0 mm | 4.92 m/s, 104° | - | - |
| 1778155557 | 25° C | 41% | 1006.8 hPa | 0 mm | 2.24 m/s, 131° | - | - |
| 1778155257 | 24.44° C | 44% | 1006.8 hPa | 0 mm | 4.92 m/s, 109° | - | - |
| 1778154957 | 24.44° C | 42% | 1006.8 hPa | 0 mm | 4.92 m/s, 122° | - | - |
| 1778154657 | 25° C | 43% | 1006.8 hPa | 0 mm | 4.92 m/s, 112° | - | - |
| 1778154357 | 24.44° C | 44% | 1006.8 hPa | 0 mm | 3.13 m/s, 112° | - | - |
| 1778154058 | 25° C | 44% | 1006.8 hPa | 0 mm | 4.92 m/s, 94° | - | - |
| 1778153757 | 25° C | 42% | 1006.8 hPa | 0 mm | 5.36 m/s, 102° | - | - |
| 1778153457 | 25.56° C | 40% | 1006.8 hPa | 0 mm | 1.79 m/s, 130° | - | - |
| 1778153156 | 25° C | 43% | 1006.8 hPa | 0 mm | 4.47 m/s, 122° | - | - |
| 1778152857 | 24.44° C | 44% | 1007.5 hPa | 0 mm | 4.92 m/s, 116° | - | - |
* Rain latest hour (hover to see other rain measurements)
** Current wind speed in m/s (hover to see current wind gust speed)